Charqueadas, Brazil
Current Conditions -  °F | °C
As of 5:00 AM on Tuesday 21 Oct 2014 (Local Time) from SBPA Reporting Station
Few Clouds Few Clouds  
Wind Chill: 59°   Ceiling: Unl
Heat Index: 59°   Visibility: 6mi
Dew Point: 55°   Wind: 2mph
Humidity: 88%   Direction: 60°ENE
Pressure: 30.12"   Gusts: NA
Location:  29.95°S, 51.63°W
Report Text: SBPA 210700Z 06002KT 9999 FEW021 15/13 Q1020
Loading
Personal Weather Stations






























Interactive Weather Map
Tropical Storm Tracking
New forecast layout! Learn more

10-Day Weather Forecast

Advertisements
Track Severe Weather on mobile